KSJT

San Angelo Regional / Mathis Field Airport

San Angelo, Texas, USA
METAR KSJT 230551Z AUTO 17004KT 10SM OVC100 13/11 A3017 RMK AO2 SLP208 T01280106 10144 20128 401780106 58001
Observed Flight Rules
Oct-23 @ 05:51 UTC (13 minutes ago) Visual Flight Rules
Wind Visibility Clouds
170° at 4 knots 10 miles
  • Overcast at 10,000' AGL
Temperatures Readings
Current 13°C / 55°F
Dewpoint 11°C / 52°F
Humidity 88%
Altimeter 30.17" Hg
Pressure 1020.8 hPa
Elevation 576
METAR KSJT 230551Z AUTO 17004KT 10SM OVC100 13/11 A3017 RMK AO2 SLP208 T01280106 10144 20128 401780106 58001
Observed Flight Rules
Oct-23 @ 05:51 UTC
(13 minutes ago)
VFR
Wind Visibility
170° at 4 knots 10 miles
Clouds
  • Overcast at 10,000' AGL
Temperature Dewpoint
13°C / 55°F 11°C / 52°F
Humidity Altimeter Pressure
88% 30.17" Hg 1020.8 hPa